Terminal Aerodrome Forecast
Issued by NWS

Home | Current Version | Previous Version | Text Only | Print | Product List | Glossary On
Versions: 1 2 3 4 5 6 7 8 9 10 11 12 13
278
FTUS43 KMPX 301720
TAFRNH
TAF
KRNH 301720Z 3018/3118 08012G18KT P6SM BKN020 BKN035
     FM310200 04005KT P6SM BKN050
     FM311100 02006KT P6SM BKN020
     FM311600 02008KT P6SM SCT035=

USA.gov is the U.S. government's official web portal to all federal, state and local government web resources and services.